Hl Boryeong — 3FYM — position and weather

sailwx.info

Track history (hours):
 
Tides and Currents Weather Stations Pressure Air Temp Water Temp Dewpoint Dewpoint Depression Visibility Wind Speed Wind Dir Waves Ship Positions

Hl Boryeong

Last reported at 2017-Aug-21 15:44 UTC. Time now 2017-Aug-22 01:32 UTC.
Position S 33°22' E 152°13'.

Length 273 m; draft 9.5 m.

Type: Cargo ship. MMSI: 374471000.

Date/timePositionNaut miles runAvg speedWind from/ knotsBaromVisibWave heightAir tempDewpointWater temp
2017-Aug-21 15:44S 33°22' E 152°13'0 1.5
2017-Aug-21 15:25S 33°22' E 152°13'2 1.1
2017-Aug-21 13:53S 33°24' E 152°15'1 0.6
2017-Aug-21 12:58S 33°24' E 152°15'1 0.2
2017-Aug-21 10:24S 33°24' E 152°14'14 1.4
2017-Aug-21 00:46S 33°10' E 152°15'2 5.7
2017-Aug-21 00:30S 33°09' E 152°15'3 5.4
2017-Aug-21 00:00S 33°06' E 152°15'2 4.9
2017-Aug-20 23:30S 33°04' E 152°15'2 4.8
2017-Aug-20 23:00S 33°01' E 152°15'3 5.0
2017-Aug-20 22:30S 32°59' E 152°14'2 4.5
2017-Aug-20 22:00S 32°56' E 152°14'0 0.4
2017-Aug-20 21:30S 32°57' E 152°14'0 1.0
2017-Aug-20 21:00S 32°57' E 152°14'1 1.0
2017-Aug-20 20:30S 32°58' E 152°15'0 1.0
2017-Aug-20 20:00S 32°58' E 152°15'1 1.1
2017-Aug-20 19:30S 32°59' E 152°15'1 1.1
2017-Aug-20 19:00S 32°59' E 152°15'1 1.1
2017-Aug-20 18:30S 32°60' E 152°15'1 1.1
2017-Aug-20 18:00S 33°00' E 152°15'1 1.2
2017-Aug-20 17:30S 33°01' E 152°15'1 1.2
2017-Aug-20 17:00S 33°01' E 152°14'1 1.3
2017-Aug-20 16:30S 33°02' E 152°14'1 1.3
2017-Aug-20 16:00S 33°03' E 152°14'1 1.3
2017-Aug-20 15:30S 33°03' E 152°14'1 1.3
2017-Aug-20 15:00S 33°04' E 152°14'1 1.3
2017-Aug-20 14:30S 33°05' E 152°14'1 1.4
2017-Aug-20 14:00S 33°05' E 152°13'1 1.5
2017-Aug-20 13:30S 33°06' E 152°13'1 1.5
2017-Aug-20 13:00S 33°07' E 152°13'1 1.6
2017-Aug-20 12:30S 33°07' E 152°13'1 1.6
2017-Aug-20 12:00S 33°08' E 152°13'1 1.5
2017-Aug-20 11:30S 33°09' E 152°13'1 1.6
2017-Aug-20 10:58S 33°10' E 152°13'1 1.7
2017-Aug-20 10:28S 33°11' E 152°12'1 1.8
2017-Aug-20 09:59S 33°12' E 152°12'1 1.9
2017-Aug-20 09:29S 33°12' E 152°12'1 2.0
2017-Aug-20 09:00S 33°13' E 152°12'1 2.1
2017-Aug-20 08:30S 33°14' E 152°12'1 2.2
2017-Aug-20 08:00S 33°16' E 152°12'2 2.0
2017-Aug-20 07:10S 33°17' E 152°12'0 2.2
2017-Aug-20 07:00S 33°18' E 152°12'1 1.9
2017-Aug-20 06:30S 33°19' E 152°12'9 0.9
2017-Aug-19 21:01S 33°11' E 152°16'0 3.4
2017-Aug-19 21:00S 33°11' E 152°16'3 4.4
2017-Aug-19 20:18S 33°08' E 152°18'1 4.0
2017-Aug-19 19:58S 33°07' E 152°19'2 4.4
2017-Aug-19 19:30S 33°05' E 152°20'2 4.5
2017-Aug-19 19:00S 33°04' E 152°22'2 4.2
2017-Aug-19 18:30S 33°02' E 152°23'2 4.0
2017-Aug-19 18:00S 33°00' E 152°25'2 4.4
2017-Aug-19 17:30S 32°58' E 152°26'2 3.4
2017-Aug-19 17:00S 32°57' E 152°27'2 4.2
2017-Aug-19 16:30S 32°55' E 152°28'2 3.4
2017-Aug-19 16:00S 32°54' E 152°29'2 3.7
2017-Aug-19 15:30S 32°52' E 152°31'2 3.9
2017-Aug-19 15:00S 32°51' E 152°32'4 4.0
2017-Aug-19 14:00S 32°47' E 152°35'2 3.8
2017-Aug-19 13:30S 32°46' E 152°36'2 3.7
2017-Aug-19 13:00S 32°44' E 152°37'2 3.1
2017-Aug-19 12:30S 32°43' E 152°38'2 3.2
2017-Aug-19 12:00S 32°41' E 152°39'2 3.3
2017-Aug-19 11:30S 32°40' E 152°40'2 3.4
2017-Aug-19 11:00S 32°38' E 152°40'2 3.1
2017-Aug-19 10:30S 32°37' E 152°40'1 1.6
2017-Aug-19 10:00S 32°36' E 152°40'2 3.1
2017-Aug-19 09:30S 32°37' E 152°39'2 3.1
2017-Aug-19 09:00S 32°39' E 152°38'1 2.8
2017-Aug-19 08:30S 32°40' E 152°37'1 3.0
2017-Aug-19 08:00S 32°41' E 152°36'1 2.9
2017-Aug-19 07:30S 32°42' E 152°36'2 3.1
2017-Aug-19 06:59S 32°44' E 152°35'1 2.9
2017-Aug-19 06:30S 32°45' E 152°34'1 2.8
2017-Aug-19 06:00S 32°46' E 152°33'1 2.6
2017-Aug-19 05:30S 32°47' E 152°32'1 2.7
2017-Aug-19 05:00S 32°48' E 152°31'1 2.8
2017-Aug-19 04:30S 32°50' E 152°31'1 3.0
2017-Aug-19 04:00S 32°51' E 152°30'2 3.0
2017-Aug-19 03:30S 32°52' E 152°29'1 2.9
2017-Aug-19 03:00S 32°53' E 152°28'2 3.0
2017-Aug-19 02:30S 32°55' E 152°27'1 2.9
2017-Aug-19 02:00S 32°56' E 152°26'1 2.8
2017-Aug-19 01:30S 32°57' E 152°25'1 2.8
2017-Aug-19 01:00S 32°58' E 152°24'2 4.2
2017-Aug-19 00:30S 32°59' E 152°22'2 4.8
2017-Aug-19 00:00S 33°02' E 152°23'1 1.8
2017-Aug-18 23:30S 33°01' E 152°24'0 0.4
2017-Aug-18 23:00S 33°01' E 152°24'0 0.6
2017-Aug-18 22:30S 33°01' E 152°24'1 1.3
2017-Aug-18 22:00S 33°00' E 152°24'1 1.2
2017-Aug-18 21:30S 32°59' E 152°24'1 1.1
2017-Aug-18 21:00S 32°59' E 152°25'1 1.3
2017-Aug-18 20:30S 32°59' E 152°26'1 1.6
2017-Aug-18 20:00S 32°58' E 152°26'1 1.3
2017-Aug-18 19:30S 32°57' E 152°26'1 2.3
2017-Aug-18 19:00S 32°56' E 152°27'1 1.4
2017-Aug-18 18:30S 32°56' E 152°27'1 1.6
2017-Aug-18 18:00S 32°55' E 152°28'1 1.9
2017-Aug-18 17:30S 32°54' E 152°28'1 1.7
2017-Aug-18 17:00S 32°53' E 152°29'1 1.6
2017-Aug-18 16:30S 32°53' E 152°29'1 1.5
2017-Aug-18 16:00S 32°52' E 152°29'1 1.6
2017-Aug-18 15:30S 32°51' E 152°30'1 1.6
2017-Aug-18 15:00S 32°51' E 152°30'1 2.1
2017-Aug-18 14:30S 32°50' E 152°31'2 2.3
2017-Aug-18 13:30S 32°48' E 152°32'1 2.8
2017-Aug-18 13:00S 32°46' E 152°33'1 2.8
2017-Aug-18 12:30S 32°45' E 152°34'1 2.8
2017-Aug-18 12:00S 32°44' E 152°35'1 2.9
2017-Aug-18 11:30S 32°43' E 152°35'1 3.0
2017-Aug-18 11:00S 32°41' E 152°36'1 1.1
2017-Aug-18 10:30S 32°41' E 152°36'2 3.6
2017-Aug-18 10:00S 32°43' E 152°36'2 3.6
2017-Aug-18 09:30S 32°44' E 152°36'2 3.4
2017-Aug-18 09:00S 32°46' E 152°35'2 3.3
2017-Aug-18 08:29S 32°48' E 152°34'2 3.3
2017-Aug-18 08:00S 32°49' E 152°34'2 3.3
2017-Aug-18 07:30S 32°51' E 152°33'2 3.4
2017-Aug-18 07:00S 32°52' E 152°33'2 3.2
2017-Aug-18 06:30S 32°54' E 152°32'2 3.4
2017-Aug-18 06:00S 32°55' E 152°31'2 3.3
2017-Aug-18 05:30S 32°57' E 152°31'2 3.4
2017-Aug-18 05:00S 32°59' E 152°30'2 3.5
2017-Aug-18 04:30S 33°00' E 152°29'2 3.4
2017-Aug-18 04:00S 33°02' E 152°28'2 3.4
2017-Aug-18 03:30S 33°03' E 152°27'2 3.2
2017-Aug-18 03:00S 33°05' E 152°26'2 3.3
2017-Aug-18 02:29S 33°06' E 152°25'2 3.3
2017-Aug-18 02:00S 33°07' E 152°24'2 3.4
2017-Aug-18 01:30S 33°08' E 152°22'2 3.3
2017-Aug-18 01:00S 33°09' E 152°21'2 3.3
2017-Aug-18 00:30S 33°11' E 152°19'2 3.1
2017-Aug-18 00:00S 33°12' E 152°18'1 3.0
2017-Aug-17 23:30S 33°13' E 152°17'1 2.8
2017-Aug-17 23:00S 33°14' E 152°15'1 2.7
2017-Aug-17 22:30S 33°15' E 152°14'1 2.8
2017-Aug-17 22:00S 33°16' E 152°13'2 1.6
2017-Aug-17 20:33S 33°14' E 152°14'0 1.8
2017-Aug-17 20:30S 33°14' E 152°14'1 2.5
2017-Aug-17 20:00S 33°15' E 152°15'3 5.3
2017-Aug-17 19:30S 33°17' E 152°13'3 5.6
2017-Aug-17 19:00S 33°20' E 152°12'3 2.1
2017-Aug-17 17:38S 33°17' E 152°12'1 5.8
2017-Aug-17 17:26S 33°16' E 152°13'3 5.8
2017-Aug-17 17:00S 33°14' E 152°14'3 5.8
2017-Aug-17 16:30S 33°11' E 152°16'3 5.7
2017-Aug-17 16:00S 33°09' E 152°18'3 5.6
2017-Aug-17 15:30S 33°06' E 152°19'3 5.5
2017-Aug-17 15:00S 33°04' E 152°21'3 5.5
2017-Aug-17 14:30S 33°01' E 152°23'3 5.6
2017-Aug-17 14:00S 32°59' E 152°24'3 5.6
2017-Aug-17 13:30S 32°57' E 152°26'3 5.9
2017-Aug-17 13:00S 32°54' E 152°28'3 5.8
2017-Aug-17 12:30S 32°51' E 152°29'3 5.9
2017-Aug-17 12:00S 32°49' E 152°31'3 5.9
2017-Aug-17 11:30S 32°46' E 152°32'3 5.9
2017-Aug-17 11:00S 32°44' E 152°34'3 5.9
2017-Aug-17 10:30S 32°41' E 152°36'3 5.9
2017-Aug-17 10:00S 32°38' E 152°38'3 5.9
2017-Aug-17 09:30S 32°36' E 152°39'3 5.9
2017-Aug-17 09:00S 32°33' E 152°41'3 5.5
2017-Aug-17 08:30S 32°31' E 152°42'1 2.2
2017-Aug-17 08:00S 32°30' E 152°43'1 1.2
2017-Aug-17 07:30S 32°30' E 152°43'1 1.0
2017-Aug-17 06:59S 32°31' E 152°44'0 0.9
2017-Aug-17 06:29S 32°31' E 152°44'1 1.1
2017-Aug-17 06:00S 32°32' E 152°44'1 1.3
2017-Aug-17 05:30S 32°32' E 152°44'1 1.6
2017-Aug-17 05:00S 32°33' E 152°44'1 1.7
2017-Aug-17 04:30S 32°34' E 152°44'1 1.7
2017-Aug-17 04:00S 32°35' E 152°44'1 2.1
2017-Aug-17 03:30S 32°36' E 152°44'1 2.3
2017-Aug-17 03:00S 32°37' E 152°43'1 2.5
2017-Aug-17 02:30S 32°38' E 152°43'1 2.5
2017-Aug-17 02:00S 32°39' E 152°43'1 2.3
2017-Aug-17 01:30S 32°41' E 152°42'1 2.5
2017-Aug-17 01:00S 32°42' E 152°42'1 2.8
2017-Aug-17 00:30S 32°43' E 152°41'1 2.8
2017-Aug-17 00:00S 32°44' E 152°41'2 2.5
2017-Aug-16 23:18S 32°46' E 152°40'1 2.2
2017-Aug-16 22:52S 32°47' E 152°39'1 2.2
2017-Aug-16 22:30S 32°48' E 152°39'1 2.3
2017-Aug-16 22:00S 32°49' E 152°39'1 2.2
2017-Aug-16 21:30S 32°50' E 152°38'1 2.2
2017-Aug-16 21:00S 32°51' E 152°38'1 2.2
2017-Aug-16 20:30S 32°52' E 152°38'1 2.3
2017-Aug-16 20:00S 32°53' E 152°38'1 2.4
2017-Aug-16 19:30S 32°54' E 152°37'1 2.5
2017-Aug-16 19:00S 32°55' E 152°37'1 2.3
2017-Aug-16 18:30S 32°57' E 152°37'1 2.1
2017-Aug-16 18:00S 32°58' E 152°37'1 2.1
2017-Aug-16 17:30S 32°59' E 152°37'1 2.2
2017-Aug-16 17:00S 32°60' E 152°37'1 2.4
2017-Aug-16 16:30S 33°01' E 152°37'1 2.5
2017-Aug-16 15:58S 33°02' E 152°37'2 2.8
2017-Aug-16 15:15S 33°04' E 152°37'1 2.8
2017-Aug-16 14:57S 33°05' E 152°37'1 2.8
2017-Aug-16 14:30S 33°06' E 152°38'1 2.8
2017-Aug-16 14:00S 33°08' E 152°38'1 2.8
2017-Aug-16 13:30S 33°09' E 152°38'1 2.9
2017-Aug-16 13:00S 33°11' E 152°38'26 1.9
2017-Aug-15 23:37S 33°33' E 152°23'0 1.3
2017-Aug-15 23:29S 33°33' E 152°23'1 1.3
2017-Aug-15 23:00S 33°33' E 152°23'1 1.7
2017-Aug-15 22:13S 33°32' E 152°22'0 1.9
2017-Aug-15 22:00S 33°31' E 152°22'1 2.0
2017-Aug-15 21:30S 33°30' E 152°22'1 2.1
2017-Aug-15 21:00S 33°29' E 152°21'1 2.1
2017-Aug-15 20:30S 33°28' E 152°21'1 2.3
2017-Aug-15 20:00S 33°27' E 152°21'1 2.4
2017-Aug-15 19:30S 33°26' E 152°21'1 2.6
2017-Aug-15 19:00S 33°25' E 152°20'1 2.6
2017-Aug-15 18:30S 33°23' E 152°20'1 2.8
2017-Aug-15 18:00S 33°22' E 152°19'1 2.8
2017-Aug-15 17:30S 33°21' E 152°19'1 2.8
2017-Aug-15 17:00S 33°19' E 152°18'1 2.8
2017-Aug-15 16:30S 33°18' E 152°18'1 2.7
2017-Aug-15 16:00S 33°17' E 152°18'1 2.6
2017-Aug-15 15:30S 33°15' E 152°17'1 2.5
2017-Aug-15 15:00S 33°14' E 152°17'1 2.5
2017-Aug-15 14:30S 33°13' E 152°17'1 2.4
2017-Aug-15 14:00S 33°12' E 152°17'1 2.3
2017-Aug-15 13:30S 33°10' E 152°17'1 2.3
2017-Aug-15 13:00S 33°09' E 152°17'1 2.1
2017-Aug-15 12:30S 33°08' E 152°17'1 2.2
2017-Aug-15 12:00S 33°07' E 152°17'1 2.1
2017-Aug-15 11:30S 33°06' E 152°17'1 2.0
2017-Aug-15 11:00S 33°05' E 152°17'1 2.0
2017-Aug-15 10:30S 33°04' E 152°17'1 1.9
2017-Aug-15 10:00S 33°03' E 152°17'1 1.9
2017-Aug-15 09:30S 33°02' E 152°17'1 1.8
2017-Aug-15 09:00S 33°01' E 152°18'1 1.7
2017-Aug-15 08:30S 33°01' E 152°18'1 1.5
2017-Aug-15 08:00S 33°00' E 152°18'1 1.4
2017-Aug-15 07:30S 32°59' E 152°19'1 1.4
2017-Aug-15 07:00S 32°59' E 152°19'1 1.4
2017-Aug-15 06:30S 32°58' E 152°19'1 1.0
2017-Aug-15 06:00S 32°58' E 152°20'0 1.0
2017-Aug-15 05:30S 32°57' E 152°20'0 0.8
2017-Aug-15 05:00S 32°57' E 152°20'0 0.7
2017-Aug-15 04:30S 32°57' E 152°21'0 0.5
2017-Aug-15 04:00S 32°56' E 152°21'0 0.1
2017-Aug-15 03:30S 32°56' E 152°21'0 0.1
2017-Aug-15 03:00S 32°56' E 152°21'0 0.3
2017-Aug-15 02:30S 32°57' E 152°21'0 0.5
2017-Aug-15 02:00S 32°57' E 152°21'0 0.6
2017-Aug-15 01:30S 32°57' E 152°21'0 0.5
2017-Aug-15 01:00S 32°57' E 152°21'0 0.5
2017-Aug-15 00:30S 32°57' E 152°20'0 0.5
2017-Aug-15 00:00S 32°58' E 152°20'0 0.6
2017-Aug-14 23:30S 32°58' E 152°20'0 0.5
2017-Aug-14 23:00S 32°58' E 152°20'0 0.5
2017-Aug-14 22:30S 32°58' E 152°20'0 0.5
2017-Aug-14 22:00S 32°58' E 152°19'0 0.5
2017-Aug-14 21:30S 32°58' E 152°19'0 0.7
2017-Aug-14 21:00S 32°59' E 152°19'0 0.6
2017-Aug-14 20:30S 32°59' E 152°19'0 0.6
2017-Aug-14 20:00S 32°59' E 152°18'0 0.7
2017-Aug-14 19:30S 32°59' E 152°18'0 0.7
2017-Aug-14 19:00S 32°60' E 152°18'0 0.7
2017-Aug-14 18:30S 33°00' E 152°18'0 0.8
2017-Aug-14 18:00S 33°00' E 152°18'1 1.1
2017-Aug-14 17:30S 33°01' E 152°17'1 1.2
2017-Aug-14 17:00S 33°01' E 152°17'1 1.1
2017-Aug-14 16:30S 33°02' E 152°16'1 1.0
2017-Aug-14 16:00S 33°02' E 152°16'1 1.0
2017-Aug-14 15:30S 33°02' E 152°15'0 0.9
2017-Aug-14 15:00S 33°03' E 152°15'0 0.6
2017-Aug-14 14:30S 33°03' E 152°15'0 0.7
2017-Aug-14 14:00S 33°03' E 152°14'0 0.7
2017-Aug-14 13:30S 33°03' E 152°14'0 0.5
2017-Aug-14 13:00S 33°03' E 152°14'0 0.3
2017-Aug-14 12:30S 33°03' E 152°14'0 0.4
2017-Aug-14 12:00S 33°03' E 152°13'0 0.2
2017-Aug-14 11:30S 33°03' E 152°13'0 0.2
2017-Aug-14 11:00S 33°03' E 152°13'0 0.4
2017-Aug-14 10:30S 33°04' E 152°13'0 0.5
2017-Aug-14 10:00S 33°04' E 152°13'0 0.5
2017-Aug-14 09:30S 33°04' E 152°13'0 0.6
2017-Aug-14 09:00S 33°04' E 152°13'0 0.7
2017-Aug-14 08:30S 33°05' E 152°13'0 0.6
2017-Aug-14 08:00S 33°05' E 152°13'0 0.8
2017-Aug-14 07:30S 33°06' E 152°13'0 0.9
2017-Aug-14 07:00S 33°06' E 152°13'0 0.8
2017-Aug-14 06:30S 33°06' E 152°13'0 0.7
2017-Aug-14 06:00S 33°07' E 152°13'0 0.4
2017-Aug-14 05:30S 33°07' E 152°13'0 0.2
2017-Aug-14 05:00S 33°07' E 152°13'0 0.1
2017-Aug-14 04:30S 33°07' E 152°13'0 0.2
2017-Aug-14 04:00S 33°07' E 152°13'0 0.2
2017-Aug-14 03:30S 33°07' E 152°13'0 0.2
2017-Aug-14 03:00S 33°07' E 152°13'0 0.3
2017-Aug-14 02:30S 33°07' E 152°13'0 0.2
2017-Aug-14 02:00S 33°07' E 152°12'0 0.4
2017-Aug-14 01:30S 33°07' E 152°12'0 0.3
2017-Aug-14 01:00S 33°07' E 152°12'0 0.4
2017-Aug-14 00:30S 33°06' E 152°12'0 0.6
2017-Aug-14 00:00S 33°06' E 152°12'0 0.5
2017-Aug-13 23:30S 33°06' E 152°11'0 0.5
2017-Aug-13 23:00S 33°06' E 152°11'0 0.3
2017-Aug-13 22:30S 33°06' E 152°11'0 0.1
2017-Aug-13 22:00S 33°06' E 152°11'0 0.4
2017-Aug-13 21:30S 33°06' E 152°11'0 0.5
2017-Aug-13 21:00S 33°06' E 152°11'0 0.5
2017-Aug-13 20:30S 33°06' E 152°11'0 0.3
2017-Aug-13 20:00S 33°07' E 152°11'0 0.5
2017-Aug-13 19:30S 33°07' E 152°11'0 0.5
2017-Aug-13 19:00S 33°07' E 152°11'0 0.6
2017-Aug-13 18:30S 33°07' E 152°11'0 0.4
2017-Aug-13 18:00S 33°07' E 152°11'0 0.2
2017-Aug-13 17:30S 33°07' E 152°11'0 0.3
2017-Aug-13 17:00S 33°08' E 152°11'0 0.2
2017-Aug-13 16:30S 33°08' E 152°11'0 0.2
2017-Aug-13 16:00S 33°08' E 152°11'0 0.2
2017-Aug-13 15:29S 33°08' E 152°11'0 0.3
2017-Aug-13 15:00S 33°08' E 152°11'0 0.3
2017-Aug-13 14:30S 33°08' E 152°11'0 0.4
2017-Aug-13 13:59S 33°08' E 152°12'0 0.4
2017-Aug-13 13:30S 33°08' E 152°12'0 0.4
2017-Aug-13 13:00S 33°08' E 152°12'0 0.4
2017-Aug-13 12:30S 33°08' E 152°12'0 0.4
2017-Aug-13 12:00S 33°09' E 152°12'0 0.5
2017-Aug-13 11:30S 33°09' E 152°13'0 0.6
2017-Aug-13 11:00S 33°09' E 152°13'0 0.8
2017-Aug-13 10:28S 33°09' E 152°13'0 0.8
2017-Aug-13 09:58S 33°09' E 152°14'0 0.9
2017-Aug-13 09:27S 33°10' E 152°14'0 0.9
2017-Aug-13 08:58S 33°10' E 152°14'1 0.9
2017-Aug-13 08:07S 33°10' E 152°15'0 0.9
2017-Aug-13 07:56S 33°11' E 152°15'0 0.8
2017-Aug-13 07:30S 33°11' E 152°15'0 0.7
2017-Aug-13 07:00S 33°11' E 152°16'0 0.7
2017-Aug-13 06:30S 33°11' E 152°16'0 0.7
2017-Aug-13 06:00S 33°12' E 152°16'0 0.5
2017-Aug-13 05:30S 33°12' E 152°16'0 0.4
2017-Aug-13 05:00S 33°12' E 152°16'0 0.3
2017-Aug-13 04:30S 33°12' E 152°17'0 0.4
2017-Aug-13 04:00S 33°12' E 152°17'0 0.5
2017-Aug-13 03:30S 33°13' E 152°17'0 0.6
2017-Aug-13 02:59S 33°13' E 152°17'0 0.5
2017-Aug-13 02:30S 33°13' E 152°17'0 0.5
2017-Aug-13 02:00S 33°13' E 152°17'0 0.5
2017-Aug-13 01:30S 33°14' E 152°17'0 0.5
2017-Aug-13 01:00S 33°14' E 152°17'0 0.5
2017-Aug-13 00:30S 33°14' E 152°17'0 0.5
2017-Aug-13 00:00S 33°14' E 152°17'0 0.5
2017-Aug-12 23:30S 33°15' E 152°16'0 0.6
2017-Aug-12 23:00S 33°15' E 152°16'0 0.4
2017-Aug-12 22:30S 33°15' E 152°16'6 3.6
2017-Aug-12 20:50S 33°10' E 152°19'2 5.3
2017-Aug-12 20:30S 33°08' E 152°20'3 5.2
2017-Aug-12 20:00S 33°06' E 152°22'2 4.8
2017-Aug-12 19:30S 33°04' E 152°23'2 4.3
2017-Aug-12 19:00S 33°02' E 152°24'2 4.3
2017-Aug-12 18:30S 32°60' E 152°26'2 4.4
2017-Aug-12 18:00S 32°58' E 152°27'2 4.5
2017-Aug-12 17:30S 32°56' E 152°28'2 4.5
2017-Aug-12 17:00S 32°54' E 152°30'2 4.5
2017-Aug-12 16:30S 32°52' E 152°31'2 4.2
2017-Aug-12 16:00S 32°50' E 152°32'2 4.1
2017-Aug-12 15:30S 32°48' E 152°33'2 4.4
2017-Aug-12 15:00S 32°47' E 152°34'2 4.9
2017-Aug-12 14:30S 32°44' E 152°35'3 5.1
2017-Aug-12 14:00S 32°42' E 152°37'3 5.4
2017-Aug-12 13:30S 32°40' E 152°38'3 5.4
2017-Aug-12 13:00S 32°37' E 152°40'3 5.2
2017-Aug-12 12:30S 32°35' E 152°41'3 5.9
2017-Aug-12 12:00S 32°32' E 152°43'3 5.8
2017-Aug-12 11:30S 32°30' E 152°45'3 5.9
2017-Aug-12 11:00S 32°27' E 152°46'3 5.8
2017-Aug-12 10:30S 32°25' E 152°48'2 3.6
2017-Aug-12 10:00S 32°23' E 152°49'1 1.4
2017-Aug-12 09:30S 32°24' E 152°49'1 1.5
2017-Aug-12 09:00S 32°24' E 152°50'1 1.7
2017-Aug-12 08:24S 32°25' E 152°50'1 1.7
2017-Aug-12 07:59S 32°26' E 152°51'1 1.9
2017-Aug-12 07:24S 32°27' E 152°51'1 1.8
2017-Aug-12 06:59S 32°27' E 152°52'1 1.8
2017-Aug-12 06:29S 32°28' E 152°52'1 1.9
2017-Aug-12 05:59S 32°29' E 152°52'2 2.0
2017-Aug-12 04:58S 32°31' E 152°53'1 2.0
2017-Aug-12 04:30S 32°32' E 152°53'1 2.1
2017-Aug-12 04:00S 32°33' E 152°53'1 2.0
2017-Aug-12 03:30S 32°34' E 152°52'1 2.0
2017-Aug-12 03:00S 32°35' E 152°52'1 2.0
2017-Aug-12 02:30S 32°36' E 152°52'1 1.9
2017-Aug-12 02:00S 32°37' E 152°52'1 1.9
2017-Aug-12 01:30S 32°38' E 152°51'1 2.0
2017-Aug-12 01:00S 32°39' E 152°51'1 2.2
2017-Aug-12 00:30S 32°40' E 152°50'1 2.1
2017-Aug-12 00:00S 32°41' E 152°49'1 2.2
2017-Aug-11 23:30S 32°42' E 152°49'1 2.3
2017-Aug-11 23:00S 32°43' E 152°48'1 2.4
2017-Aug-11 22:30S 32°44' E 152°47'1 2.4
2017-Aug-11 22:00S 32°45' E 152°47'1 2.4
2017-Aug-11 21:30S 32°46' E 152°46'1 2.3
2017-Aug-11 21:00S 32°47' E 152°45'1 2.4
2017-Aug-11 20:30S 32°48' E 152°45'1 2.4
2017-Aug-11 20:00S 32°49' E 152°44'1 2.3
2017-Aug-11 19:30S 32°50' E 152°43'1 2.2
2017-Aug-11 19:00S 32°51' E 152°43'1 2.1
2017-Aug-11 18:30S 32°52' E 152°42'1 1.9
2017-Aug-11 18:00S 32°53' E 152°42'1 1.7
2017-Aug-11 17:30S 32°54' E 152°41'1 1.6
2017-Aug-11 17:00S 32°54' E 152°41'1 1.6
2017-Aug-11 16:30S 32°55' E 152°41'1 1.5
2017-Aug-11 16:00S 32°56' E 152°41'  
Track history (hours):
 
Tides and Currents Weather Stations Pressure Air Temp Water Temp Dewpoint Dewpoint Depression Visibility Wind Speed Wind Dir Waves Ship Positions

Hl Boryeong

Last reported at 2017-Aug-21 15:44 UTC. Time now 2017-Aug-22 01:32 UTC.
Position S 33°22' E 152°13'.

Length 273 m; draft 9.5 m.

Type: Cargo ship. MMSI: 374471000.

Date/timePositionNaut miles runAvg speedWind from/ knotsBaromVisibWave heightAir tempDewpointWater temp
2017-Aug-21 15:44S 33°22' E 152°13'0 1.5
2017-Aug-21 15:25S 33°22' E 152°13'2 1.1
2017-Aug-21 13:53S 33°24' E 152°15'1 0.6
2017-Aug-21 12:58S 33°24' E 152°15'1 0.2
2017-Aug-21 10:24S 33°24' E 152°14'14 1.4
2017-Aug-21 00:46S 33°10' E 152°15'2 5.7
2017-Aug-21 00:30S 33°09' E 152°15'3 5.4
2017-Aug-21 00:00S 33°06' E 152°15'2 4.9
2017-Aug-20 23:30S 33°04' E 152°15'2 4.8
2017-Aug-20 23:00S 33°01' E 152°15'3 5.0
2017-Aug-20 22:30S 32°59' E 152°14'2 4.5
2017-Aug-20 22:00S 32°56' E 152°14'0 0.4
2017-Aug-20 21:30S 32°57' E 152°14'0 1.0
2017-Aug-20 21:00S 32°57' E 152°14'1 1.0
2017-Aug-20 20:30S 32°58' E 152°15'0 1.0
2017-Aug-20 20:00S 32°58' E 152°15'1 1.1
2017-Aug-20 19:30S 32°59' E 152°15'1 1.1
2017-Aug-20 19:00S 32°59' E 152°15'1 1.1
2017-Aug-20 18:30S 32°60' E 152°15'1 1.1
2017-Aug-20 18:00S 33°00' E 152°15'1 1.2
2017-Aug-20 17:30S 33°01' E 152°15'1 1.2
2017-Aug-20 17:00S 33°01' E 152°14'1 1.3
2017-Aug-20 16:30S 33°02' E 152°14'1 1.3
2017-Aug-20 16:00S 33°03' E 152°14'1 1.3
2017-Aug-20 15:30S 33°03' E 152°14'1 1.3
2017-Aug-20 15:00S 33°04' E 152°14'1 1.3
2017-Aug-20 14:30S 33°05' E 152°14'1 1.4
2017-Aug-20 14:00S 33°05' E 152°13'1 1.5
2017-Aug-20 13:30S 33°06' E 152°13'1 1.5
2017-Aug-20 13:00S 33°07' E 152°13'1 1.6
2017-Aug-20 12:30S 33°07' E 152°13'1 1.6
2017-Aug-20 12:00S 33°08' E 152°13'1 1.5
2017-Aug-20 11:30S 33°09' E 152°13'1 1.6
2017-Aug-20 10:58S 33°10' E 152°13'1 1.7
2017-Aug-20 10:28S 33°11' E 152°12'1 1.8
2017-Aug-20 09:59S 33°12' E 152°12'1 1.9
2017-Aug-20 09:29S 33°12' E 152°12'1 2.0
2017-Aug-20 09:00S 33°13' E 152°12'1 2.1
2017-Aug-20 08:30S 33°14' E 152°12'1 2.2
2017-Aug-20 08:00S 33°16' E 152°12'2 2.0
2017-Aug-20 07:10S 33°17' E 152°12'0 2.2
2017-Aug-20 07:00S 33°18' E 152°12'1 1.9
2017-Aug-20 06:30S 33°19' E 152°12'9 0.9
2017-Aug-19 21:01S 33°11' E 152°16'0 3.4
2017-Aug-19 21:00S 33°11' E 152°16'3 4.4
2017-Aug-19 20:18S 33°08' E 152°18'1 4.0
2017-Aug-19 19:58S 33°07' E 152°19'2 4.4
2017-Aug-19 19:30S 33°05' E 152°20'2 4.5
2017-Aug-19 19:00S 33°04' E 152°22'2 4.2
2017-Aug-19 18:30S 33°02' E 152°23'2 4.0
2017-Aug-19 18:00S 33°00' E 152°25'2 4.4
2017-Aug-19 17:30S 32°58' E 152°26'2 3.4
2017-Aug-19 17:00S 32°57' E 152°27'2 4.2
2017-Aug-19 16:30S 32°55' E 152°28'2 3.4
2017-Aug-19 16:00S 32°54' E 152°29'2 3.7
2017-Aug-19 15:30S 32°52' E 152°31'2 3.9
2017-Aug-19 15:00S 32°51' E 152°32'4 4.0
2017-Aug-19 14:00S 32°47' E 152°35'2 3.8
2017-Aug-19 13:30S 32°46' E 152°36'2 3.7
2017-Aug-19 13:00S 32°44' E 152°37'2 3.1
2017-Aug-19 12:30S 32°43' E 152°38'2 3.2
2017-Aug-19 12:00S 32°41' E 152°39'2 3.3
2017-Aug-19 11:30S 32°40' E 152°40'2 3.4
2017-Aug-19 11:00S 32°38' E 152°40'2 3.1
2017-Aug-19 10:30S 32°37' E 152°40'1 1.6
2017-Aug-19 10:00S 32°36' E 152°40'2 3.1
2017-Aug-19 09:30S 32°37' E 152°39'2 3.1
2017-Aug-19 09:00S 32°39' E 152°38'1 2.8
2017-Aug-19 08:30S 32°40' E 152°37'1 3.0
2017-Aug-19 08:00S 32°41' E 152°36'1 2.9
2017-Aug-19 07:30S 32°42' E 152°36'2 3.1
2017-Aug-19 06:59S 32°44' E 152°35'1 2.9
2017-Aug-19 06:30S 32°45' E 152°34'1 2.8
2017-Aug-19 06:00S 32°46' E 152°33'1 2.6
2017-Aug-19 05:30S 32°47' E 152°32'1 2.7
2017-Aug-19 05:00S 32°48' E 152°31'1 2.8
2017-Aug-19 04:30S 32°50' E 152°31'1 3.0
2017-Aug-19 04:00S 32°51' E 152°30'2 3.0
2017-Aug-19 03:30S 32°52' E 152°29'1 2.9
2017-Aug-19 03:00S 32°53' E 152°28'2 3.0
2017-Aug-19 02:30S 32°55' E 152°27'1 2.9
2017-Aug-19 02:00S 32°56' E 152°26'1 2.8
2017-Aug-19 01:30S 32°57' E 152°25'1 2.8
2017-Aug-19 01:00S 32°58' E 152°24'2 4.2
2017-Aug-19 00:30S 32°59' E 152°22'2 4.8
2017-Aug-19 00:00S 33°02' E 152°23'1 1.8
2017-Aug-18 23:30S 33°01' E 152°24'0 0.4
2017-Aug-18 23:00S 33°01' E 152°24'0 0.6
2017-Aug-18 22:30S 33°01' E 152°24'1 1.3
2017-Aug-18 22:00S 33°00' E 152°24'1 1.2
2017-Aug-18 21:30S 32°59' E 152°24'1 1.1
2017-Aug-18 21:00S 32°59' E 152°25'1 1.3
2017-Aug-18 20:30S 32°59' E 152°26'1 1.6
2017-Aug-18 20:00S 32°58' E 152°26'1 1.3
2017-Aug-18 19:30S 32°57' E 152°26'1 2.3
2017-Aug-18 19:00S 32°56' E 152°27'1 1.4
2017-Aug-18 18:30S 32°56' E 152°27'1 1.6
2017-Aug-18 18:00S 32°55' E 152°28'1 1.9
2017-Aug-18 17:30S 32°54' E 152°28'1 1.7
2017-Aug-18 17:00S 32°53' E 152°29'1 1.6
2017-Aug-18 16:30S 32°53' E 152°29'1 1.5
2017-Aug-18 16:00S 32°52' E 152°29'1 1.6
2017-Aug-18 15:30S 32°51' E 152°30'1 1.6
2017-Aug-18 15:00S 32°51' E 152°30'1 2.1
2017-Aug-18 14:30S 32°50' E 152°31'2 2.3
2017-Aug-18 13:30S 32°48' E 152°32'1 2.8
2017-Aug-18 13:00S 32°46' E 152°33'1 2.8
2017-Aug-18 12:30S 32°45' E 152°34'1 2.8
2017-Aug-18 12:00S 32°44' E 152°35'1 2.9
2017-Aug-18 11:30S 32°43' E 152°35'1 3.0
2017-Aug-18 11:00S 32°41' E 152°36'1 1.1
2017-Aug-18 10:30S 32°41' E 152°36'2 3.6
2017-Aug-18 10:00S 32°43' E 152°36'2 3.6
2017-Aug-18 09:30S 32°44' E 152°36'2 3.4
2017-Aug-18 09:00S 32°46' E 152°35'2 3.3
2017-Aug-18 08:29S 32°48' E 152°34'2 3.3
2017-Aug-18 08:00S 32°49' E 152°34'2 3.3
2017-Aug-18 07:30S 32°51' E 152°33'2 3.4
2017-Aug-18 07:00S 32°52' E 152°33'2 3.2
2017-Aug-18 06:30S 32°54' E 152°32'2 3.4
2017-Aug-18 06:00S 32°55' E 152°31'2 3.3
2017-Aug-18 05:30S 32°57' E 152°31'2 3.4
2017-Aug-18 05:00S 32°59' E 152°30'2 3.5
2017-Aug-18 04:30S 33°00' E 152°29'2 3.4
2017-Aug-18 04:00S 33°02' E 152°28'2 3.4
2017-Aug-18 03:30S 33°03' E 152°27'2 3.2
2017-Aug-18 03:00S 33°05' E 152°26'2 3.3
2017-Aug-18 02:29S 33°06' E 152°25'2 3.3
2017-Aug-18 02:00S 33°07' E 152°24'2 3.4
2017-Aug-18 01:30S 33°08' E 152°22'2 3.3
2017-Aug-18 01:00S 33°09' E 152°21'2 3.3
2017-Aug-18 00:30S 33°11' E 152°19'2 3.1
2017-Aug-18 00:00S 33°12' E 152°18'1 3.0
2017-Aug-17 23:30S 33°13' E 152°17'1 2.8
2017-Aug-17 23:00S 33°14' E 152°15'1 2.7
2017-Aug-17 22:30S 33°15' E 152°14'1 2.8
2017-Aug-17 22:00S 33°16' E 152°13'2 1.6
2017-Aug-17 20:33S 33°14' E 152°14'0 1.8
2017-Aug-17 20:30S 33°14' E 152°14'1 2.5
2017-Aug-17 20:00S 33°15' E 152°15'3 5.3
2017-Aug-17 19:30S 33°17' E 152°13'3 5.6
2017-Aug-17 19:00S 33°20' E 152°12'3 2.1
2017-Aug-17 17:38S 33°17' E 152°12'1 5.8
2017-Aug-17 17:26S 33°16' E 152°13'3 5.8
2017-Aug-17 17:00S 33°14' E 152°14'3 5.8
2017-Aug-17 16:30S 33°11' E 152°16'3 5.7
2017-Aug-17 16:00S 33°09' E 152°18'3 5.6
2017-Aug-17 15:30S 33°06' E 152°19'3 5.5
2017-Aug-17 15:00S 33°04' E 152°21'3 5.5
2017-Aug-17 14:30S 33°01' E 152°23'3 5.6
2017-Aug-17 14:00S 32°59' E 152°24'3 5.6
2017-Aug-17 13:30S 32°57' E 152°26'3 5.9
2017-Aug-17 13:00S 32°54' E 152°28'3 5.8
2017-Aug-17 12:30S 32°51' E 152°29'3 5.9
2017-Aug-17 12:00S 32°49' E 152°31'3 5.9
2017-Aug-17 11:30S 32°46' E 152°32'3 5.9
2017-Aug-17 11:00S 32°44' E 152°34'3 5.9
2017-Aug-17 10:30S 32°41' E 152°36'3 5.9
2017-Aug-17 10:00S 32°38' E 152°38'3 5.9
2017-Aug-17 09:30S 32°36' E 152°39'3 5.9
2017-Aug-17 09:00S 32°33' E 152°41'3 5.5
2017-Aug-17 08:30S 32°31' E 152°42'1 2.2
2017-Aug-17 08:00S 32°30' E 152°43'1 1.2
2017-Aug-17 07:30S 32°30' E 152°43'1 1.0
2017-Aug-17 06:59S 32°31' E 152°44'0 0.9
2017-Aug-17 06:29S 32°31' E 152°44'1 1.1
2017-Aug-17 06:00S 32°32' E 152°44'1 1.3
2017-Aug-17 05:30S 32°32' E 152°44'1 1.6
2017-Aug-17 05:00S 32°33' E 152°44'1 1.7
2017-Aug-17 04:30S 32°34' E 152°44'1 1.7
2017-Aug-17 04:00S 32°35' E 152°44'1 2.1
2017-Aug-17 03:30S 32°36' E 152°44'1 2.3
2017-Aug-17 03:00S 32°37' E 152°43'1 2.5
2017-Aug-17 02:30S 32°38' E 152°43'1 2.5
2017-Aug-17 02:00S 32°39' E 152°43'1 2.3
2017-Aug-17 01:30S 32°41' E 152°42'1 2.5
2017-Aug-17 01:00S 32°42' E 152°42'1 2.8
2017-Aug-17 00:30S 32°43' E 152°41'1 2.8
2017-Aug-17 00:00S 32°44' E 152°41'2 2.5
2017-Aug-16 23:18S 32°46' E 152°40'1 2.2
2017-Aug-16 22:52S 32°47' E 152°39'1 2.2
2017-Aug-16 22:30S 32°48' E 152°39'1 2.3
2017-Aug-16 22:00S 32°49' E 152°39'1 2.2
2017-Aug-16 21:30S 32°50' E 152°38'1 2.2
2017-Aug-16 21:00S 32°51' E 152°38'1 2.2
2017-Aug-16 20:30S 32°52' E 152°38'1 2.3
2017-Aug-16 20:00S 32°53' E 152°38'1 2.4
2017-Aug-16 19:30S 32°54' E 152°37'1 2.5
2017-Aug-16 19:00S 32°55' E 152°37'1 2.3
2017-Aug-16 18:30S 32°57' E 152°37'1 2.1
2017-Aug-16 18:00S 32°58' E 152°37'1 2.1
2017-Aug-16 17:30S 32°59' E 152°37'1 2.2
2017-Aug-16 17:00S 32°60' E 152°37'1 2.4
2017-Aug-16 16:30S 33°01' E 152°37'1 2.5
2017-Aug-16 15:58S 33°02' E 152°37'2 2.8
2017-Aug-16 15:15S 33°04' E 152°37'1 2.8
2017-Aug-16 14:57S 33°05' E 152°37'1 2.8
2017-Aug-16 14:30S 33°06' E 152°38'1 2.8
2017-Aug-16 14:00S 33°08' E 152°38'1 2.8
2017-Aug-16 13:30S 33°09' E 152°38'1 2.9
2017-Aug-16 13:00S 33°11' E 152°38'26 1.9
2017-Aug-15 23:37S 33°33' E 152°23'0 1.3
2017-Aug-15 23:29S 33°33' E 152°23'1 1.3
2017-Aug-15 23:00S 33°33' E 152°23'1 1.7
2017-Aug-15 22:13S 33°32' E 152°22'0 1.9
2017-Aug-15 22:00S 33°31' E 152°22'1 2.0
2017-Aug-15 21:30S 33°30' E 152°22'1 2.1
2017-Aug-15 21:00S 33°29' E 152°21'1 2.1
2017-Aug-15 20:30S 33°28' E 152°21'1 2.3
2017-Aug-15 20:00S 33°27' E 152°21'1 2.4
2017-Aug-15 19:30S 33°26' E 152°21'1 2.6
2017-Aug-15 19:00S 33°25' E 152°20'1 2.6
2017-Aug-15 18:30S 33°23' E 152°20'1 2.8
2017-Aug-15 18:00S 33°22' E 152°19'1 2.8
2017-Aug-15 17:30S 33°21' E 152°19'1 2.8
2017-Aug-15 17:00S 33°19' E 152°18'1 2.8
2017-Aug-15 16:30S 33°18' E 152°18'1 2.7
2017-Aug-15 16:00S 33°17' E 152°18'1 2.6
2017-Aug-15 15:30S 33°15' E 152°17'1 2.5
2017-Aug-15 15:00S 33°14' E 152°17'1 2.5
2017-Aug-15 14:30S 33°13' E 152°17'1 2.4
2017-Aug-15 14:00S 33°12' E 152°17'1 2.3
2017-Aug-15 13:30S 33°10' E 152°17'1 2.3
2017-Aug-15 13:00S 33°09' E 152°17'1 2.1
2017-Aug-15 12:30S 33°08' E 152°17'1 2.2
2017-Aug-15 12:00S 33°07' E 152°17'1 2.1
2017-Aug-15 11:30S 33°06' E 152°17'1 2.0
2017-Aug-15 11:00S 33°05' E 152°17'1 2.0
2017-Aug-15 10:30S 33°04' E 152°17'1 1.9
2017-Aug-15 10:00S 33°03' E 152°17'1 1.9
2017-Aug-15 09:30S 33°02' E 152°17'1 1.8
2017-Aug-15 09:00S 33°01' E 152°18'1 1.7
2017-Aug-15 08:30S 33°01' E 152°18'1 1.5
2017-Aug-15 08:00S 33°00' E 152°18'1 1.4
2017-Aug-15 07:30S 32°59' E 152°19'1 1.4
2017-Aug-15 07:00S 32°59' E 152°19'1 1.4
2017-Aug-15 06:30S 32°58' E 152°19'1 1.0
2017-Aug-15 06:00S 32°58' E 152°20'0 1.0
2017-Aug-15 05:30S 32°57' E 152°20'0 0.8
2017-Aug-15 05:00S 32°57' E 152°20'0 0.7
2017-Aug-15 04:30S 32°57' E 152°21'0 0.5
2017-Aug-15 04:00S 32°56' E 152°21'0 0.1
2017-Aug-15 03:30S 32°56' E 152°21'0 0.1
2017-Aug-15 03:00S 32°56' E 152°21'0 0.3
2017-Aug-15 02:30S 32°57' E 152°21'0 0.5
2017-Aug-15 02:00S 32°57' E 152°21'0 0.6
2017-Aug-15 01:30S 32°57' E 152°21'0 0.5
2017-Aug-15 01:00S 32°57' E 152°21'0 0.5
2017-Aug-15 00:30S 32°57' E 152°20'0 0.5
2017-Aug-15 00:00S 32°58' E 152°20'0 0.6
2017-Aug-14 23:30S 32°58' E 152°20'0 0.5
2017-Aug-14 23:00S 32°58' E 152°20'0 0.5
2017-Aug-14 22:30S 32°58' E 152°20'0 0.5
2017-Aug-14 22:00S 32°58' E 152°19'0 0.5
2017-Aug-14 21:30S 32°58' E 152°19'0 0.7
2017-Aug-14 21:00S 32°59' E 152°19'0 0.6
2017-Aug-14 20:30S 32°59' E 152°19'0 0.6
2017-Aug-14 20:00S 32°59' E 152°18'0 0.7
2017-Aug-14 19:30S 32°59' E 152°18'0 0.7
2017-Aug-14 19:00S 32°60' E 152°18'0 0.7
2017-Aug-14 18:30S 33°00' E 152°18'0 0.8
2017-Aug-14 18:00S 33°00' E 152°18'1 1.1
2017-Aug-14 17:30S 33°01' E 152°17'1 1.2
2017-Aug-14 17:00S 33°01' E 152°17'1 1.1
2017-Aug-14 16:30S 33°02' E 152°16'1 1.0
2017-Aug-14 16:00S 33°02' E 152°16'1 1.0
2017-Aug-14 15:30S 33°02' E 152°15'0 0.9
2017-Aug-14 15:00S 33°03' E 152°15'0 0.6
2017-Aug-14 14:30S 33°03' E 152°15'0 0.7
2017-Aug-14 14:00S 33°03' E 152°14'0 0.7
2017-Aug-14 13:30S 33°03' E 152°14'0 0.5
2017-Aug-14 13:00S 33°03' E 152°14'0 0.3
2017-Aug-14 12:30S 33°03' E 152°14'0 0.4
2017-Aug-14 12:00S 33°03' E 152°13'0 0.2
2017-Aug-14 11:30S 33°03' E 152°13'0 0.2
2017-Aug-14 11:00S 33°03' E 152°13'0 0.4
2017-Aug-14 10:30S 33°04' E 152°13'0 0.5
2017-Aug-14 10:00S 33°04' E 152°13'0 0.5
2017-Aug-14 09:30S 33°04' E 152°13'0 0.6
2017-Aug-14 09:00S 33°04' E 152°13'0 0.7
2017-Aug-14 08:30S 33°05' E 152°13'0 0.6
2017-Aug-14 08:00S 33°05' E 152°13'0 0.8
2017-Aug-14 07:30S 33°06' E 152°13'0 0.9
2017-Aug-14 07:00S 33°06' E 152°13'0 0.8
2017-Aug-14 06:30S 33°06' E 152°13'0 0.7
2017-Aug-14 06:00S 33°07' E 152°13'0 0.4
2017-Aug-14 05:30S 33°07' E 152°13'0 0.2
2017-Aug-14 05:00S 33°07' E 152°13'0 0.1
2017-Aug-14 04:30S 33°07' E 152°13'0 0.2
2017-Aug-14 04:00S 33°07' E 152°13'0 0.2
2017-Aug-14 03:30S 33°07' E 152°13'0 0.2
2017-Aug-14 03:00S 33°07' E 152°13'0 0.3
2017-Aug-14 02:30S 33°07' E 152°13'0 0.2
2017-Aug-14 02:00S 33°07' E 152°12'0 0.4
2017-Aug-14 01:30S 33°07' E 152°12'0 0.3
2017-Aug-14 01:00S 33°07' E 152°12'0 0.4
2017-Aug-14 00:30S 33°06' E 152°12'0 0.6
2017-Aug-14 00:00S 33°06' E 152°12'0 0.5
2017-Aug-13 23:30S 33°06' E 152°11'0 0.5
2017-Aug-13 23:00S 33°06' E 152°11'0 0.3
2017-Aug-13 22:30S 33°06' E 152°11'0 0.1
2017-Aug-13 22:00S 33°06' E 152°11'0 0.4
2017-Aug-13 21:30S 33°06' E 152°11'0 0.5
2017-Aug-13 21:00S 33°06' E 152°11'0 0.5
2017-Aug-13 20:30S 33°06' E 152°11'0 0.3
2017-Aug-13 20:00S 33°07' E 152°11'0 0.5
2017-Aug-13 19:30S 33°07' E 152°11'0 0.5
2017-Aug-13 19:00S 33°07' E 152°11'0 0.6
2017-Aug-13 18:30S 33°07' E 152°11'0 0.4
2017-Aug-13 18:00S 33°07' E 152°11'0 0.2
2017-Aug-13 17:30S 33°07' E 152°11'0 0.3
2017-Aug-13 17:00S 33°08' E 152°11'0 0.2
2017-Aug-13 16:30S 33°08' E 152°11'0 0.2
2017-Aug-13 16:00S 33°08' E 152°11'0 0.2
2017-Aug-13 15:29S 33°08' E 152°11'0 0.3
2017-Aug-13 15:00S 33°08' E 152°11'0 0.3
2017-Aug-13 14:30S 33°08' E 152°11'0 0.4
2017-Aug-13 13:59S 33°08' E 152°12'0 0.4
2017-Aug-13 13:30S 33°08' E 152°12'0 0.4
2017-Aug-13 13:00S 33°08' E 152°12'0 0.4
2017-Aug-13 12:30S 33°08' E 152°12'0 0.4
2017-Aug-13 12:00S 33°09' E 152°12'0 0.5
2017-Aug-13 11:30S 33°09' E 152°13'0 0.6
2017-Aug-13 11:00S 33°09' E 152°13'0 0.8
2017-Aug-13 10:28S 33°09' E 152°13'0 0.8
2017-Aug-13 09:58S 33°09' E 152°14'0 0.9
2017-Aug-13 09:27S 33°10' E 152°14'0 0.9
2017-Aug-13 08:58S 33°10' E 152°14'1 0.9
2017-Aug-13 08:07S 33°10' E 152°15'0 0.9
2017-Aug-13 07:56S 33°11' E 152°15'0 0.8
2017-Aug-13 07:30S 33°11' E 152°15'0 0.7
2017-Aug-13 07:00S 33°11' E 152°16'0 0.7
2017-Aug-13 06:30S 33°11' E 152°16'0 0.7
2017-Aug-13 06:00S 33°12' E 152°16'0 0.5
2017-Aug-13 05:30S 33°12' E 152°16'0 0.4
2017-Aug-13 05:00S 33°12' E 152°16'0 0.3
2017-Aug-13 04:30S 33°12' E 152°17'0 0.4
2017-Aug-13 04:00S 33°12' E 152°17'0 0.5
2017-Aug-13 03:30S 33°13' E 152°17'0 0.6
2017-Aug-13 02:59S 33°13' E 152°17'0 0.5
2017-Aug-13 02:30S 33°13' E 152°17'0 0.5
2017-Aug-13 02:00S 33°13' E 152°17'0 0.5
2017-Aug-13 01:30S 33°14' E 152°17'0 0.5
2017-Aug-13 01:00S 33°14' E 152°17'0 0.5
2017-Aug-13 00:30S 33°14' E 152°17'0 0.5
2017-Aug-13 00:00S 33°14' E 152°17'0 0.5
2017-Aug-12 23:30S 33°15' E 152°16'0 0.6
2017-Aug-12 23:00S 33°15' E 152°16'0 0.4
2017-Aug-12 22:30S 33°15' E 152°16'6 3.6
2017-Aug-12 20:50S 33°10' E 152°19'2 5.3
2017-Aug-12 20:30S 33°08' E 152°20'3 5.2
2017-Aug-12 20:00S 33°06' E 152°22'2 4.8
2017-Aug-12 19:30S 33°04' E 152°23'2 4.3
2017-Aug-12 19:00S 33°02' E 152°24'2 4.3
2017-Aug-12 18:30S 32°60' E 152°26'2 4.4
2017-Aug-12 18:00S 32°58' E 152°27'2 4.5
2017-Aug-12 17:30S 32°56' E 152°28'2 4.5
2017-Aug-12 17:00S 32°54' E 152°30'2 4.5
2017-Aug-12 16:30S 32°52' E 152°31'2 4.2
2017-Aug-12 16:00S 32°50' E 152°32'2 4.1
2017-Aug-12 15:30S 32°48' E 152°33'2 4.4
2017-Aug-12 15:00S 32°47' E 152°34'2 4.9
2017-Aug-12 14:30S 32°44' E 152°35'3 5.1
2017-Aug-12 14:00S 32°42' E 152°37'3 5.4
2017-Aug-12 13:30S 32°40' E 152°38'3 5.4
2017-Aug-12 13:00S 32°37' E 152°40'3 5.2
2017-Aug-12 12:30S 32°35' E 152°41'3 5.9
2017-Aug-12 12:00S 32°32' E 152°43'3 5.8
2017-Aug-12 11:30S 32°30' E 152°45'3 5.9
2017-Aug-12 11:00S 32°27' E 152°46'3 5.8
2017-Aug-12 10:30S 32°25' E 152°48'2 3.6
2017-Aug-12 10:00S 32°23' E 152°49'1 1.4
2017-Aug-12 09:30S 32°24' E 152°49'1 1.5
2017-Aug-12 09:00S 32°24' E 152°50'1 1.7
2017-Aug-12 08:24S 32°25' E 152°50'1 1.7
2017-Aug-12 07:59S 32°26' E 152°51'1 1.9
2017-Aug-12 07:24S 32°27' E 152°51'1 1.8
2017-Aug-12 06:59S 32°27' E 152°52'1 1.8
2017-Aug-12 06:29S 32°28' E 152°52'1 1.9
2017-Aug-12 05:59S 32°29' E 152°52'2 2.0
2017-Aug-12 04:58S 32°31' E 152°53'1 2.0
2017-Aug-12 04:30S 32°32' E 152°53'1 2.1
2017-Aug-12 04:00S 32°33' E 152°53'1 2.0
2017-Aug-12 03:30S 32°34' E 152°52'1 2.0
2017-Aug-12 03:00S 32°35' E 152°52'1 2.0
2017-Aug-12 02:30S 32°36' E 152°52'1 1.9
2017-Aug-12 02:00S 32°37' E 152°52'1 1.9
2017-Aug-12 01:30S 32°38' E 152°51'1 2.0
2017-Aug-12 01:00S 32°39' E 152°51'1 2.2
2017-Aug-12 00:30S 32°40' E 152°50'1 2.1
2017-Aug-12 00:00S 32°41' E 152°49'1 2.2
2017-Aug-11 23:30S 32°42' E 152°49'1 2.3
2017-Aug-11 23:00S 32°43' E 152°48'1 2.4
2017-Aug-11 22:30S 32°44' E 152°47'1 2.4
2017-Aug-11 22:00S 32°45' E 152°47'1 2.4
2017-Aug-11 21:30S 32°46' E 152°46'1 2.3
2017-Aug-11 21:00S 32°47' E 152°45'1 2.4
2017-Aug-11 20:30S 32°48' E 152°45'1 2.4
2017-Aug-11 20:00S 32°49' E 152°44'1 2.3
2017-Aug-11 19:30S 32°50' E 152°43'1 2.2
2017-Aug-11 19:00S 32°51' E 152°43'1 2.1
2017-Aug-11 18:30S 32°52' E 152°42'1 1.9
2017-Aug-11 18:00S 32°53' E 152°42'1 1.7
2017-Aug-11 17:30S 32°54' E 152°41'1 1.6
2017-Aug-11 17:00S 32°54' E 152°41'1 1.6
2017-Aug-11 16:30S 32°55' E 152°41'1 1.5
2017-Aug-11 16:00S 32°56' E 152°41'  

Dump ship's entire track history